グラスゴー の空港の天気 - METARとTAF

グラスゴー国際空港 ( EGPF / GLA ) - イギリス グラスゴー
飛行場実況気象(Metar)
観測時間07/18 13:20 BST (07/18 12:20 UTC)
風向・風速南西 9m/s
視程10km以上
天気現象
全天の8割程度の雲 雲底高度 820m
全天の8割程度の雲 雲底高度 1040m
全天の8割程度の雲 雲底高度 1250m
気温16℃
湿度77%
気圧1005hPa
METAREGPF 181220Z AUTO 23018KT 9999 BKN027/// BKN034/// BKN041/// //////CB 16/12 Q1005
過去の天気等 Google飛行場航空写真 Wunderground天気予報

過去48時間のMETAR

飛行場予報(TAF)
発表時間: 7/18 11:58 BST (7/18 10:58 UTC)
予報対象時間: 18日13時 BST ~ 19日13時 BST
風向・風速南西 5m/s
視程10km以上
全天の4割程度の雲 雲底高度 760m
18日13時 BST ~ 18日21時 BST に一時的に
視程7000m
天気現象しゅう雨
18日13時 BST ~ 18日15時 BST に 確率 30% で一時的に
視程4000m
天気現象強いしゅう雨
19日12時 BST ~ 19日13時 BST に一時的に
視程7000m
天気現象
TAF EGPF 181058Z 1812/1912 22009KT 9999 SCT025
TEMPO 1812/1820 7000 SHRA
PROB30 TEMPO 1812/1814 4000 +SHRA
TEMPO 1911/1912 7000 RA